createdAt,value
2018-09-09T00:00:21.232Z,55.24
2018-09-09T00:02:49.248Z,54.56
2018-09-09T00:05:17.299Z,55.01
2018-09-09T00:07:45.438Z,54.94
2018-09-09T00:10:13.643Z,55.34
2018-09-09T00:12:41.692Z,55.13
2018-09-09T00:15:09.922Z,54.39
2018-09-09T00:17:38.077Z,54.33
2018-09-09T00:20:06.146Z,54.22
2018-09-09T00:22:34.156Z,54.83
2018-09-09T00:25:02.201Z,54.87
2018-09-09T00:27:30.221Z,55.33
2018-09-09T00:29:58.372Z,54.95
2018-09-09T00:32:26.560Z,55.16
2018-09-09T00:34:54.660Z,54.49
2018-09-09T00:37:22.838Z,54.49
2018-09-09T00:39:50.832Z,54.10
2018-09-09T00:42:18.853Z,54.94
2018-09-09T00:44:46.920Z,55.75
2018-09-09T00:47:14.940Z,55.58
2018-09-09T00:49:48.390Z,55.57
2018-09-09T00:52:21.820Z,55.75
2018-09-09T00:54:49.994Z,56.13
2018-09-09T00:57:18.153Z,56.03
2018-09-09T00:59:46.449Z,56.53
2018-09-09T01:02:14.641Z,55.33
2018-09-09T01:04:42.693Z,56.70
2018-09-09T01:07:10.726Z,56.08
2018-09-09T01:09:38.728Z,56.19
2018-09-09T01:12:06.759Z,56.31
2018-09-09T01:14:35.364Z,56.26
2018-09-09T01:17:03.456Z,56.71
2018-09-09T01:19:31.571Z,56.03
2018-09-09T01:21:59.736Z,56.17
2018-09-09T01:24:27.780Z,55.83
2018-09-09T01:26:55.801Z,56.48
2018-09-09T01:29:24.065Z,56.98
2018-09-09T01:31:52.166Z,56.80
2018-09-09T01:34:20.308Z,57.08
2018-09-09T01:36:48.504Z,57.63
2018-09-09T01:39:16.616Z,57.08
2018-09-09T01:41:44.816Z,57.39
2018-09-09T01:44:12.836Z,57.27
2018-09-09T01:46:40.849Z,56.57
2018-09-09T01:49:08.856Z,57.30
2018-09-09T01:51:36.868Z,56.48
2018-09-09T01:54:04.921Z,56.82
2018-09-09T01:56:32.941Z,56.91
2018-09-09T01:59:01.037Z,57.65
2018-09-09T02:01:29.104Z,57.87
2018-09-09T02:03:57.284Z,57.49
2018-09-09T02:06:25.309Z,57.61
2018-09-09T02:08:53.372Z,56.78
2018-09-09T02:11:21.426Z,57.29
2018-09-09T02:13:49.481Z,57.05
2018-09-09T02:16:17.494Z,57.03
2018-09-09T02:18:45.505Z,57.61
2018-09-09T02:21:13.545Z,57.84
2018-09-09T02:23:41.805Z,57.90
2018-09-09T02:26:09.855Z,57.74
2018-09-09T02:28:38.009Z,57.65
2018-09-09T02:31:07.061Z,58.01
2018-09-09T02:33:35.094Z,57.90
2018-09-09T02:36:03.100Z,57.04
2018-09-09T02:38:31.143Z,57.31
2018-09-09T02:40:59.192Z,58.58
2018-09-09T02:43:27.270Z,57.74
2018-09-09T02:45:55.321Z,58.54
2018-09-09T02:48:23.677Z,59.28
2018-09-09T02:50:51.835Z,58.50
2018-09-09T02:53:19.859Z,58.64
2018-09-09T02:55:47.917Z,59.51
2018-09-09T02:58:17.153Z,59.06
2018-09-09T03:00:45.794Z,59.40
2018-09-09T03:03:13.958Z,59.04
2018-09-09T03:05:42.700Z,58.17
2018-09-09T03:08:10.763Z,58.82
2018-09-09T03:10:39.416Z,59.16
2018-09-09T03:13:07.457Z,59.02
2018-09-09T03:15:35.591Z,59.50
2018-09-09T03:18:03.968Z,60.02
2018-09-09T03:20:31.999Z,59.92
2018-09-09T03:23:00.140Z,59.58
2018-09-09T03:25:28.252Z,58.69
2018-09-09T03:27:56.360Z,58.70
2018-09-09T03:30:24.378Z,60.02
2018-09-09T03:32:52.376Z,60.69
2018-09-09T03:35:20.391Z,59.98
2018-09-09T03:37:48.414Z,59.99
2018-09-09T03:40:16.513Z,60.11
2018-09-09T03:42:44.576Z,59.90
2018-09-09T03:45:12.672Z,59.66
2018-09-09T03:47:40.704Z,60.71
2018-09-09T03:50:08.793Z,60.31
2018-09-09T03:52:36.857Z,60.15
2018-09-09T03:55:04.921Z,60.42
2018-09-09T03:57:32.954Z,59.70
2018-09-09T04:00:00.961Z,59.82
2018-09-09T04:02:28.970Z,59.28
2018-09-09T04:04:57.006Z,60.28
2018-09-09T04:07:25.051Z,59.61
2018-09-09T04:09:53.060Z,60.15
2018-09-09T04:12:21.092Z,61.20
2018-09-09T04:14:49.162Z,60.49
2018-09-09T04:17:17.221Z,60.51
2018-09-09T04:19:45.281Z,60.70
2018-09-09T04:22:13.437Z,61.30
2018-09-09T04:24:41.581Z,60.98
2018-09-09T04:27:09.605Z,60.98
2018-09-09T04:29:37.617Z,60.49
2018-09-09T04:32:05.804Z,60.47
2018-09-09T04:34:33.800Z,61.70
2018-09-09T04:37:01.833Z,61.16
2018-09-09T04:39:29.928Z,61.37
2018-09-09T04:41:57.937Z,60.81
2018-09-09T04:44:26.039Z,61.57
2018-09-09T04:46:54.140Z,62.21
2018-09-09T04:49:22.256Z,61.11
2018-09-09T04:51:50.431Z,61.52
2018-09-09T04:54:19.242Z,61.67
2018-09-09T04:56:47.265Z,61.37
2018-09-09T04:59:15.296Z,61.94
2018-09-09T05:01:43.344Z,62.19
2018-09-09T05:04:11.413Z,62.45
2018-09-09T05:06:39.464Z,61.57
2018-09-09T05:09:07.914Z,61.48
2018-09-09T05:11:36.117Z,61.70
2018-09-09T05:14:04.280Z,61.66
2018-09-09T05:16:32.419Z,62.85
2018-09-09T05:19:00.511Z,61.45
2018-09-09T05:21:28.884Z,60.89
2018-09-09T05:23:57.128Z,61.99
2018-09-09T05:26:25.145Z,60.72
2018-09-09T05:28:53.227Z,60.92
2018-09-09T05:31:21.327Z,61.58
2018-09-09T05:33:49.397Z,61.49
2018-09-09T05:36:17.511Z,61.20
2018-09-09T05:38:45.867Z,60.65
2018-09-09T05:41:13.970Z,60.23
2018-09-09T05:43:41.997Z,60.34
2018-09-09T05:46:10.037Z,60.15
2018-09-09T05:48:38.079Z,59.89
2018-09-09T05:51:06.925Z,59.45
2018-09-09T05:53:34.943Z,59.74
2018-09-09T05:56:02.988Z,58.69
2018-09-09T05:58:31.031Z,58.10
2018-09-09T06:00:59.145Z,57.31
2018-09-09T06:03:27.249Z,55.45
2018-09-09T06:05:55.329Z,55.00
2018-09-09T06:08:23.328Z,52.61
2018-09-09T06:10:53.312Z,51.26
2018-09-09T06:13:22.033Z,51.70
2018-09-09T06:15:50.241Z,49.95
2018-09-09T06:18:18.308Z,48.50
2018-09-09T06:20:46.458Z,45.98
2018-09-09T06:23:15.025Z,41.80
2018-09-09T06:25:43.212Z,39.33
2018-09-09T06:28:11.280Z,40.04
2018-09-09T06:30:39.244Z,39.41
2018-09-09T06:33:07.512Z,39.46
2018-09-09T06:35:35.566Z,38.90
2018-09-09T06:38:03.604Z,39.56
2018-09-09T06:40:31.592Z,40.16
2018-09-09T06:42:59.693Z,41.33
2018-09-09T06:45:27.981Z,41.09
2018-09-09T06:47:56.274Z,40.23
2018-09-09T06:50:24.326Z,39.21
2018-09-09T06:52:52.376Z,38.83
2018-09-09T06:55:20.478Z,37.15
2018-09-09T06:57:48.481Z,39.26
2018-09-09T07:00:17.541Z,40.12
2018-09-09T07:02:45.621Z,40.40
2018-09-09T07:05:13.741Z,40.48
2018-09-09T07:07:41.851Z,42.04
2018-09-09T07:10:09.919Z,42.67
2018-09-09T07:12:38.034Z,42.92
2018-09-09T07:15:06.171Z,43.23
2018-09-09T07:17:34.273Z,44.73
2018-09-09T07:20:02.281Z,44.96
2018-09-09T07:22:30.353Z,45.77
2018-09-09T07:24:58.356Z,47.17
2018-09-09T07:27:26.484Z,46.16
2018-09-09T07:29:54.602Z,47.54
2018-09-09T07:32:22.717Z,46.45
2018-09-09T07:34:50.736Z,47.26
2018-09-09T07:37:19.054Z,46.74
2018-09-09T07:39:47.223Z,46.00
2018-09-09T07:42:15.260Z,44.09
2018-09-09T07:44:43.393Z,43.93
2018-09-09T07:47:11.440Z,42.39
2018-09-09T07:49:39.557Z,42.25
2018-09-09T07:52:07.792Z,38.02
2018-09-09T07:54:35.836Z,35.12
2018-09-09T07:57:03.959Z,32.08
2018-09-09T07:59:33.804Z,28.46
2018-09-09T08:02:01.917Z,27.23
2018-09-09T08:04:30.161Z,25.93
2018-09-09T08:06:58.374Z,24.08
2018-09-09T08:09:26.389Z,23.94
2018-09-09T08:11:54.444Z,21.60
2018-09-09T08:14:22.477Z,21.41
2018-09-09T08:16:50.489Z,20.71
2018-09-09T08:19:18.605Z,21.05
2018-09-09T08:21:46.705Z,20.58
2018-09-09T08:24:14.738Z,20.37
2018-09-09T08:26:42.849Z,18.71
2018-09-09T08:29:10.967Z,19.01
2018-09-09T08:31:38.964Z,18.71
2018-09-09T08:34:06.999Z,19.39
2018-09-09T08:36:35.004Z,18.89
2018-09-09T08:39:03.105Z,21.16
2018-09-09T08:41:32.265Z,22.85
2018-09-09T08:44:00.309Z,23.46
2018-09-09T08:46:28.317Z,24.67
2018-09-09T08:48:56.333Z,24.51
2018-09-09T08:51:24.366Z,22.75
2018-09-09T08:53:52.397Z,22.81
2018-09-09T08:56:20.433Z,21.96
2018-09-09T08:58:48.561Z,22.45
2018-09-09T09:01:16.605Z,22.47
2018-09-09T09:03:45.114Z,21.45
2018-09-09T09:06:13.137Z,23.05
2018-09-09T09:08:41.191Z,23.77
2018-09-09T09:11:09.188Z,22.66
2018-09-09T09:13:37.225Z,22.67
2018-09-09T09:16:05.561Z,23.14
2018-09-09T09:18:33.718Z,22.67
2018-09-09T09:21:01.782Z,24.02
2018-09-09T09:23:29.861Z,24.47
2018-09-09T09:25:57.889Z,25.25
2018-09-09T09:28:25.942Z,24.89
2018-09-09T09:30:54.417Z,27.17
2018-09-09T09:33:22.725Z,29.05
2018-09-09T09:35:53.123Z,28.66
2018-09-09T09:38:22.110Z,28.90
2018-09-09T09:40:50.848Z,29.90
2018-09-09T09:43:18.932Z,30.69
2018-09-09T09:45:47.096Z,32.63
2018-09-09T09:48:15.245Z,32.37
2018-09-09T09:50:43.582Z,33.47
2018-09-09T09:53:11.783Z,33.79
2018-09-09T09:55:39.957Z,34.16
2018-09-09T09:58:07.989Z,34.50
2018-09-09T10:00:41.401Z,34.88
2018-09-09T10:03:09.438Z,33.49
2018-09-09T10:05:37.568Z,34.01
2018-09-09T10:08:05.935Z,34.63
2018-09-09T10:10:34.005Z,34.81
2018-09-09T10:13:02.036Z,33.82
2018-09-09T10:15:30.202Z,33.72
2018-09-09T10:17:58.208Z,32.99
2018-09-09T10:20:26.313Z,34.13
2018-09-09T10:22:54.400Z,33.23
2018-09-09T10:25:22.454Z,33.69
2018-09-09T10:27:50.486Z,33.62
2018-09-09T10:30:18.581Z,35.22
2018-09-09T10:32:46.764Z,35.74
2018-09-09T10:35:14.781Z,36.57
2018-09-09T10:37:42.781Z,35.16
2018-09-09T10:40:10.992Z,34.73
2018-09-09T10:42:39.005Z,35.59
2018-09-09T10:45:07.040Z,34.64
2018-09-09T10:47:35.162Z,36.10
2018-09-09T10:50:03.168Z,34.49
2018-09-09T10:52:31.197Z,35.70
2018-09-09T10:54:59.320Z,35.78
2018-09-09T10:57:27.385Z,35.46
2018-09-09T10:59:55.401Z,34.30
2018-09-09T11:02:23.729Z,35.27
2018-09-09T11:04:51.736Z,35.83
2018-09-09T11:07:20.872Z,35.55
2018-09-09T11:09:48.908Z,33.78
2018-09-09T11:12:16.920Z,33.80
2018-09-09T11:14:44.929Z,34.57
2018-09-09T11:17:12.973Z,34.57
2018-09-09T11:19:40.984Z,32.04
2018-09-09T11:22:09.077Z,33.31
2018-09-09T11:24:37.154Z,32.75
2018-09-09T11:27:05.249Z,34.94
2018-09-09T11:29:33.299Z,34.99
2018-09-09T11:32:01.604Z,33.37
2018-09-09T11:34:29.673Z,34.42
2018-09-09T11:36:57.752Z,33.88
2018-09-09T11:39:25.757Z,32.55
2018-09-09T11:41:53.923Z,32.44
2018-09-09T11:44:21.964Z,34.37
2018-09-09T11:46:50.018Z,35.56
2018-09-09T11:49:18.040Z,33.99
2018-09-09T11:51:46.078Z,33.07
2018-09-09T11:54:14.152Z,33.26
2018-09-09T11:56:42.225Z,33.28
2018-09-09T11:59:10.375Z,34.06
2018-09-09T12:01:38.398Z,33.31
2018-09-09T12:04:06.424Z,34.87
2018-09-09T12:06:34.428Z,32.98
2018-09-09T12:09:02.529Z,35.28
2018-09-09T12:11:30.548Z,36.18
2018-09-09T12:13:58.651Z,35.03
2018-09-09T12:16:26.667Z,35.31
2018-09-09T12:18:54.705Z,34.71
2018-09-09T12:21:22.824Z,32.79
2018-09-09T12:23:50.857Z,34.02
2018-09-09T12:26:19.070Z,34.03
2018-09-09T12:28:47.139Z,34.69
2018-09-09T12:31:15.136Z,34.50
2018-09-09T12:33:43.330Z,34.62
2018-09-09T12:36:11.345Z,34.73
2018-09-09T12:38:39.361Z,34.78
2018-09-09T12:41:07.400Z,35.28
2018-09-09T12:43:40.918Z,36.76
2018-09-09T12:46:14.345Z,34.65
2018-09-09T12:48:48.896Z,32.99
2018-09-09T12:51:16.941Z,33.95
2018-09-09T12:53:44.980Z,32.46
2018-09-09T12:56:13.016Z,30.99
2018-09-09T12:58:41.024Z,31.50
2018-09-09T13:01:09.009Z,31.81
2018-09-09T13:03:37.009Z,29.40
2018-09-09T13:06:05.021Z,30.91
2018-09-09T13:08:33.053Z,31.72
2018-09-09T13:11:01.102Z,32.45
2018-09-09T13:13:29.282Z,33.23
2018-09-09T13:15:57.333Z,33.08
2018-09-09T13:18:25.358Z,32.36
2018-09-09T13:20:53.372Z,33.51
2018-09-09T13:23:21.480Z,35.10
2018-09-09T13:25:49.613Z,34.44
2018-09-09T13:28:17.713Z,33.85
2018-09-09T13:30:45.892Z,34.67
2018-09-09T13:33:13.929Z,33.60
2018-09-09T13:35:41.969Z,33.05
2018-09-09T13:38:10.146Z,33.08
2018-09-09T13:40:38.179Z,33.76
2018-09-09T13:43:06.207Z,34.92
2018-09-09T13:45:34.231Z,32.74
2018-09-09T13:48:02.304Z,31.90
2018-09-09T13:50:30.454Z,33.91
2018-09-09T13:52:58.558Z,33.89
2018-09-09T13:55:26.597Z,34.57
2018-09-09T13:57:54.677Z,34.36
2018-09-09T14:00:22.718Z,35.20
2018-09-09T14:02:50.888Z,34.62
2018-09-09T14:05:18.968Z,35.83
2018-09-09T14:07:47.067Z,35.62
2018-09-09T14:10:15.212Z,35.58
2018-09-09T14:12:43.234Z,34.18
2018-09-09T14:15:11.334Z,33.89
2018-09-09T14:17:39.352Z,35.67
2018-09-09T14:20:07.464Z,35.11
2018-09-09T14:22:35.507Z,33.56
2018-09-09T14:25:03.537Z,34.92
2018-09-09T14:27:31.564Z,35.09
2018-09-09T14:29:59.546Z,35.20
2018-09-09T14:32:27.569Z,34.84
2018-09-09T14:34:55.573Z,37.20
2018-09-09T14:37:23.657Z,35.38
2018-09-09T14:39:51.691Z,36.70
2018-09-09T14:42:19.729Z,35.56
2018-09-09T14:44:47.773Z,35.92
2018-09-09T14:47:16.344Z,36.66
2018-09-09T14:49:44.409Z,36.15
2018-09-09T14:52:12.436Z,36.10
2018-09-09T14:54:40.519Z,36.24
2018-09-09T14:57:08.537Z,36.59
2018-09-09T14:59:36.679Z,36.92
2018-09-09T15:02:04.710Z,36.23
2018-09-09T15:04:32.937Z,36.17
2018-09-09T15:07:01.080Z,34.91
2018-09-09T15:09:29.083Z,35.67
2018-09-09T15:11:57.102Z,33.83
2018-09-09T15:14:25.118Z,33.68
2018-09-09T15:16:53.168Z,34.96
2018-09-09T15:19:21.235Z,32.31
2018-09-09T15:21:49.336Z,33.94
2018-09-09T15:24:17.405Z,31.31
2018-09-09T15:26:45.449Z,31.25
2018-09-09T15:29:13.517Z,33.03
2018-09-09T15:31:41.517Z,32.85
2018-09-09T15:34:09.613Z,34.01
2018-09-09T15:36:37.592Z,32.78
2018-09-09T15:39:06.552Z,32.47
2018-09-09T15:41:34.596Z,33.24
2018-09-09T15:44:02.868Z,33.19
2018-09-09T15:46:30.901Z,32.98
2018-09-09T15:48:58.954Z,32.91
2018-09-09T15:51:26.984Z,34.78
2018-09-09T15:53:55.035Z,33.71
2018-09-09T15:56:23.073Z,33.42
2018-09-09T15:58:51.367Z,33.19
2018-09-09T16:01:19.381Z,32.14
2018-09-09T16:03:47.385Z,34.18
2018-09-09T16:06:15.393Z,33.97
2018-09-09T16:08:43.455Z,33.38
2018-09-09T16:11:11.509Z,32.93
2018-09-09T16:13:39.529Z,33.86
2018-09-09T16:16:07.541Z,35.25
2018-09-09T16:18:35.612Z,35.29
2018-09-09T16:21:03.620Z,36.23
2018-09-09T16:23:31.941Z,36.08
2018-09-09T16:25:59.955Z,33.94
2018-09-09T16:28:27.949Z,36.61
2018-09-09T16:30:55.941Z,35.53
2018-09-09T16:33:23.960Z,35.49
2018-09-09T16:35:52.360Z,34.86
2018-09-09T16:38:20.395Z,36.33
2018-09-09T16:40:48.463Z,34.89
2018-09-09T16:43:16.496Z,37.14
2018-09-09T16:45:44.497Z,36.16
2018-09-09T16:48:12.589Z,37.43
2018-09-09T16:50:40.613Z,36.21
2018-09-09T16:53:08.621Z,35.59
2018-09-09T16:55:36.648Z,37.55
2018-09-09T16:58:04.717Z,36.29
2018-09-09T17:00:32.909Z,35.47
2018-09-09T17:03:00.982Z,36.16
2018-09-09T17:05:29.040Z,36.62
2018-09-09T17:07:57.109Z,35.53
2018-09-09T17:10:25.205Z,35.96
2018-09-09T17:12:53.245Z,36.39
2018-09-09T17:15:21.295Z,36.32
2018-09-09T17:17:49.336Z,37.30
2018-09-09T17:20:17.444Z,36.65
2018-09-09T17:22:45.432Z,36.15
2018-09-09T17:25:13.461Z,35.14
2018-09-09T17:27:41.518Z,35.86
2018-09-09T17:30:09.525Z,37.08
2018-09-09T17:32:37.717Z,37.00
2018-09-09T17:35:05.765Z,37.41
2018-09-09T17:37:33.812Z,38.27
2018-09-09T17:40:01.888Z,38.04
2018-09-09T17:42:29.958Z,38.37
2018-09-09T17:44:57.981Z,38.68
2018-09-09T17:47:26.056Z,38.35
2018-09-09T17:49:54.101Z,38.66
2018-09-09T17:52:22.264Z,38.15
2018-09-09T17:54:50.246Z,38.20
2018-09-09T17:57:18.260Z,39.16
2018-09-09T17:59:46.319Z,39.55
2018-09-09T18:02:14.353Z,39.94
2018-09-09T18:04:42.382Z,39.28
2018-09-09T18:07:10.437Z,39.57
2018-09-09T18:09:38.477Z,39.75
2018-09-09T18:12:06.581Z,40.09
2018-09-09T18:14:34.634Z,39.84
2018-09-09T18:17:02.651Z,40.91
2018-09-09T18:19:30.775Z,41.11
2018-09-09T18:21:58.837Z,41.95
2018-09-09T18:24:26.945Z,41.24
2018-09-09T18:26:54.965Z,42.65
2018-09-09T18:29:23.295Z,41.97
2018-09-09T18:31:51.311Z,42.09
2018-09-09T18:34:19.340Z,42.30
2018-09-09T18:36:47.350Z,41.93
2018-09-09T18:39:15.398Z,41.93
2018-09-09T18:41:43.457Z,42.26
2018-09-09T18:44:11.509Z,42.96
2018-09-09T18:46:39.514Z,43.21
2018-09-09T18:49:07.645Z,42.78
2018-09-09T18:51:35.677Z,43.87
2018-09-09T18:54:03.827Z,43.75
2018-09-09T18:56:32.371Z,43.88
2018-09-09T18:59:01.777Z,43.61
2018-09-09T19:01:29.952Z,45.05
2018-09-09T19:03:58.288Z,45.16
2018-09-09T19:06:26.399Z,45.18
2018-09-09T19:08:54.683Z,45.24
2018-09-09T19:11:22.966Z,45.74
2018-09-09T19:13:51.335Z,45.31
2018-09-09T19:16:19.374Z,45.94
2018-09-09T19:18:47.657Z,46.43
2018-09-09T19:21:15.778Z,45.83
2018-09-09T19:23:43.836Z,46.75
2018-09-09T19:26:11.876Z,46.29
2018-09-09T19:28:40.054Z,46.27
2018-09-09T19:31:08.156Z,47.03
2018-09-09T19:33:36.248Z,47.64
2018-09-09T19:36:04.288Z,47.32
2018-09-09T19:38:32.430Z,46.79
2018-09-09T19:41:00.449Z,46.90
2018-09-09T19:43:28.498Z,46.49
2018-09-09T19:45:56.529Z,46.82
2018-09-09T19:48:24.776Z,47.08
2018-09-09T19:50:53.013Z,47.07
2018-09-09T19:53:21.112Z,47.17
2018-09-09T19:55:49.334Z,46.60
2018-09-09T19:58:17.426Z,47.50
2018-09-09T20:00:47.513Z,47.33
2018-09-09T20:03:15.553Z,48.58
2018-09-09T20:05:43.814Z,48.79
2018-09-09T20:08:11.911Z,48.65
2018-09-09T20:10:40.005Z,49.46
2018-09-09T20:13:08.161Z,49.68
2018-09-09T20:15:36.317Z,49.26
2018-09-09T20:18:04.504Z,50.55
2018-09-09T20:20:38.342Z,50.40
2018-09-09T20:23:06.361Z,52.37
2018-09-09T20:25:34.384Z,52.87
2018-09-09T20:28:02.428Z,53.52
2018-09-09T20:30:30.526Z,54.52
2018-09-09T20:32:58.602Z,53.59
2018-09-09T20:35:26.720Z,54.01
2018-09-09T20:37:54.774Z,52.86
2018-09-09T20:40:22.955Z,51.83
2018-09-09T20:42:51.001Z,52.14
2018-09-09T20:45:19.057Z,52.51
2018-09-09T20:47:47.162Z,52.96
2018-09-09T20:50:15.208Z,52.48
2018-09-09T20:52:43.226Z,53.03
2018-09-09T20:55:11.247Z,51.79
2018-09-09T20:57:39.258Z,51.61
2018-09-09T21:00:07.342Z,51.90
2018-09-09T21:02:35.330Z,50.91
2018-09-09T21:05:03.343Z,50.99
2018-09-09T21:07:31.381Z,52.17
2018-09-09T21:09:59.404Z,51.35
2018-09-09T21:12:27.442Z,52.43
2018-09-09T21:14:55.493Z,51.87
2018-09-09T21:17:23.505Z,52.31
2018-09-09T21:19:51.536Z,52.02
2018-09-09T21:22:19.568Z,52.54
2018-09-09T21:24:47.613Z,52.31
2018-09-09T21:27:15.681Z,52.27
2018-09-09T21:29:43.692Z,52.46
2018-09-09T21:32:11.744Z,52.77
2018-09-09T21:34:39.841Z,52.76
2018-09-09T21:37:07.964Z,52.79
2018-09-09T21:39:36.014Z,53.48
2018-09-09T21:42:04.195Z,53.76
2018-09-09T21:44:32.337Z,53.60
2018-09-09T21:47:01.602Z,54.35
2018-09-09T21:49:29.613Z,54.21
2018-09-09T21:51:57.693Z,53.83
2018-09-09T21:54:25.796Z,54.79
2018-09-09T21:56:53.912Z,54.72
2018-09-09T21:59:21.998Z,55.23
2018-09-09T22:01:55.572Z,55.14
2018-09-09T22:04:23.723Z,55.72
2018-09-09T22:06:51.764Z,55.23
2018-09-09T22:09:19.769Z,56.09
2018-09-09T22:11:47.865Z,55.92
2018-09-09T22:14:15.978Z,55.70
2018-09-09T22:16:44.036Z,55.35
2018-09-09T22:19:12.085Z,55.96
2018-09-09T22:21:40.125Z,55.67
2018-09-09T22:24:08.194Z,55.74
2018-09-09T22:26:36.264Z,56.46
2018-09-09T22:29:04.257Z,56.57
2018-09-09T22:31:32.285Z,57.15
2018-09-09T22:34:00.258Z,56.36
2018-09-09T22:36:28.316Z,57.11
2018-09-09T22:38:56.444Z,56.99
2018-09-09T22:41:24.584Z,57.13
2018-09-09T22:43:52.604Z,56.30
2018-09-09T22:46:20.615Z,56.61
2018-09-09T22:48:48.604Z,57.34
2018-09-09T22:51:16.724Z,56.77
2018-09-09T22:53:44.737Z,57.44
2018-09-09T22:56:12.847Z,58.03
2018-09-09T22:58:40.883Z,57.91
2018-09-09T23:01:08.996Z,58.58
2018-09-09T23:03:37.061Z,58.98
2018-09-09T23:06:05.069Z,59.98
2018-09-09T23:08:33.104Z,59.41
2018-09-09T23:11:01.174Z,60.09
2018-09-09T23:13:29.180Z,59.53
2018-09-09T23:15:57.278Z,59.52
2018-09-09T23:18:25.299Z,58.80
2018-09-09T23:20:53.356Z,59.07
2018-09-09T23:23:21.470Z,58.25
2018-09-09T23:25:49.505Z,58.03
2018-09-09T23:28:17.489Z,57.96
2018-09-09T23:30:45.496Z,58.58
2018-09-09T23:33:13.500Z,59.48
2018-09-09T23:35:41.541Z,58.62
2018-09-09T23:38:09.572Z,59.12
2018-09-09T23:40:37.572Z,59.18
2018-09-09T23:43:05.675Z,59.81
2018-09-09T23:45:33.678Z,60.17
2018-09-09T23:48:01.818Z,59.22
2018-09-09T23:50:30.101Z,60.08
2018-09-09T23:52:58.284Z,59.58
2018-09-09T23:55:26.357Z,60.34
2018-09-09T23:57:54.394Z,60.17
